Current Weather

Michigan City Muni-Phillips Fld

Michigan City, Indiana (KMGC)

Report from: Wednesday, August 17, 2022 8:15 PM EDT
Current time: Wednesday, August 17, 2022 8:37 PM EDT

Nearby weather
Weather history
Weather forecast

Temperature20.0°C (68.0°F)
Dew point16.0°C (60.8°F)
Winds Calm
Visibility10 mi. (16.1 km)
Clouds Sky clear
Altimeter30.09 in.Hg (1019 mB)
Relative humidity78 %
Density altitude643 ft. (196 m)
Remarks Fully automated report
Automated weather observing station with precipitation discriminator
Flight conditions Visual Meteorological Conditions
Raw dataKMGC 180015Z AUTO 00000KT 10SM CLR 20/16 A3009 RMK AO2
An error has occurred. This application may no longer respond until reloaded. Reload 🗙